sensor_id;sensor_type;location;lat;lon;timestamp;temperature;humidity
54158;DHT22;40065;49.894;10.358;2023-07-16T00:01:46;24.20;99.90
54158;DHT22;40065;49.894;10.358;2023-07-16T00:06:48;23.90;99.90
54158;DHT22;40065;49.894;10.358;2023-07-16T00:11:50;24.00;99.90
54158;DHT22;40065;49.894;10.358;2023-07-16T00:16:51;24.00;99.90
54158;DHT22;40065;49.894;10.358;2023-07-16T00:21:53;23.70;99.90
54158;DHT22;40065;49.894;10.358;2023-07-16T00:26:55;23.60;99.90
54158;DHT22;40065;49.894;10.358;2023-07-16T00:31:57;23.80;99.90
54158;DHT22;40065;49.894;10.358;2023-07-16T00:36:59;23.60;99.90
54158;DHT22;40065;49.894;10.358;2023-07-16T00:42:03;23.50;99.90
54158;DHT22;40065;49.894;10.358;2023-07-16T00:47:05;23.40;99.90
54158;DHT22;40065;49.894;10.358;2023-07-16T00:52:11;23.40;99.90
54158;DHT22;40065;49.894;10.358;2023-07-16T00:57:15;23.30;99.90
54158;DHT22;40065;49.894;10.358;2023-07-16T01:02:18;23.30;99.90
54158;DHT22;40065;49.894;10.358;2023-07-16T01:07:21;23.30;99.90
54158;DHT22;40065;49.894;10.358;2023-07-16T01:12:27;23.20;99.90
54158;DHT22;40065;49.894;10.358;2023-07-16T01:17:29;23.10;99.90
54158;DHT22;40065;49.894;10.358;2023-07-16T01:23:08;22.90;99.90
54158;DHT22;40065;49.894;10.358;2023-07-16T01:28:16;23.00;99.90
54158;DHT22;40065;49.894;10.358;2023-07-16T01:33:21;23.00;99.90
54158;DHT22;40065;49.894;10.358;2023-07-16T01:38:24;23.00;99.90
54158;DHT22;40065;49.894;10.358;2023-07-16T01:43:26;23.00;99.90
54158;DHT22;40065;49.894;10.358;2023-07-16T01:48:33;22.90;99.90
54158;DHT22;40065;49.894;10.358;2023-07-16T01:53:35;22.90;99.90
54158;DHT22;40065;49.894;10.358;2023-07-16T01:58:38;22.70;99.90
54158;DHT22;40065;49.894;10.358;2023-07-16T02:03:39;22.50;99.90
54158;DHT22;40065;49.894;10.358;2023-07-16T02:08:41;22.40;99.90
54158;DHT22;40065;49.894;10.358;2023-07-16T02:13:43;22.30;99.90
54158;DHT22;40065;49.894;10.358;2023-07-16T02:18:45;22.30;99.90
54158;DHT22;40065;49.894;10.358;2023-07-16T02:23:47;22.30;99.90
54158;DHT22;40065;49.894;10.358;2023-07-16T02:28:49;22.30;99.90
54158;DHT22;40065;49.894;10.358;2023-07-16T02:33:51;22.20;99.90
54158;DHT22;40065;49.894;10.358;2023-07-16T02:38:53;22.10;99.90
54158;DHT22;40065;49.894;10.358;2023-07-16T02:44:03;22.30;99.90
54158;DHT22;40065;49.894;10.358;2023-07-16T02:49:05;22.30;99.90
54158;DHT22;40065;49.894;10.358;2023-07-16T02:54:07;22.20;99.90
54158;DHT22;40065;49.894;10.358;2023-07-16T02:59:09;22.10;99.90
54158;DHT22;40065;49.894;10.358;2023-07-16T03:04:11;22.10;99.90
54158;DHT22;40065;49.894;10.358;2023-07-16T03:09:13;22.00;99.90
54158;DHT22;40065;49.894;10.358;2023-07-16T03:14:15;22.00;99.90
54158;DHT22;40065;49.894;10.358;2023-07-16T03:19:17;21.90;99.90
54158;DHT22;40065;49.894;10.358;2023-07-16T03:24:18;21.70;99.90
54158;DHT22;40065;49.894;10.358;2023-07-16T03:29:20;21.50;99.90
54158;DHT22;40065;49.894;10.358;2023-07-16T03:34:24;21.70;99.90
54158;DHT22;40065;49.894;10.358;2023-07-16T03:39:26;21.70;99.90
54158;DHT22;40065;49.894;10.358;2023-07-16T03:44:29;21.70;99.90
54158;DHT22;40065;49.894;10.358;2023-07-16T03:49:33;21.70;99.90
54158;DHT22;40065;49.894;10.358;2023-07-16T03:54:34;21.80;99.90
54158;DHT22;40065;49.894;10.358;2023-07-16T03:59:36;21.80;99.90
54158;DHT22;40065;49.894;10.358;2023-07-16T04:04:39;21.70;99.90
54158;DHT22;40065;49.894;10.358;2023-07-16T04:09:40;21.50;99.90
54158;DHT22;40065;49.894;10.358;2023-07-16T04:14:42;21.50;99.90
54158;DHT22;40065;49.894;10.358;2023-07-16T04:19:44;21.70;99.90
54158;DHT22;40065;49.894;10.358;2023-07-16T04:24:46;21.70;99.90
54158;DHT22;40065;49.894;10.358;2023-07-16T04:29:48;21.90;99.90
54158;DHT22;40065;49.894;10.358;2023-07-16T04:34:50;22.20;99.90
54158;DHT22;40065;49.894;10.358;2023-07-16T04:39:51;22.40;99.90
54158;DHT22;40065;49.894;10.358;2023-07-16T04:44:53;22.30;99.90
54158;DHT22;40065;49.894;10.358;2023-07-16T04:49:55;22.00;99.90
54158;DHT22;40065;49.894;10.358;2023-07-16T04:55:00;21.80;99.90
54158;DHT22;40065;49.894;10.358;2023-07-16T05:00:03;21.70;99.90
54158;DHT22;40065;49.894;10.358;2023-07-16T05:05:08;21.60;99.90
54158;DHT22;40065;49.894;10.358;2023-07-16T05:10:10;21.70;99.90
54158;DHT22;40065;49.894;10.358;2023-07-16T05:15:12;21.50;99.90
54158;DHT22;40065;49.894;10.358;2023-07-16T05:20:14;21.30;99.90
54158;DHT22;40065;49.894;10.358;2023-07-16T05:25:16;23.40;99.90
54158;DHT22;40065;49.894;10.358;2023-07-16T05:30:18;23.40;99.90
54158;DHT22;40065;49.894;10.358;2023-07-16T05:35:20;22.90;99.90
54158;DHT22;40065;49.894;10.358;2023-07-16T05:40:22;22.40;99.90
54158;DHT22;40065;49.894;10.358;2023-07-16T05:45:23;22.40;99.90
54158;DHT22;40065;49.894;10.358;2023-07-16T05:50:25;22.10;99.90
54158;DHT22;40065;49.894;10.358;2023-07-16T05:55:27;22.00;99.90
54158;DHT22;40065;49.894;10.358;2023-07-16T06:00:29;22.50;99.90
54158;DHT22;40065;49.894;10.358;2023-07-16T06:05:31;23.90;99.90
54158;DHT22;40065;49.894;10.358;2023-07-16T06:10:35;23.30;99.90
54158;DHT22;40065;49.894;10.358;2023-07-16T06:15:37;22.40;99.90
54158;DHT22;40065;49.894;10.358;2023-07-16T06:20:46;22.70;99.90
54158;DHT22;40065;49.894;10.358;2023-07-16T06:25:47;23.10;99.90
54158;DHT22;40065;49.894;10.358;2023-07-16T06:30:50;23.10;99.90
54158;DHT22;40065;49.894;10.358;2023-07-16T06:35:53;22.60;99.90
54158;DHT22;40065;49.894;10.358;2023-07-16T06:40:55;22.50;99.90
54158;DHT22;40065;49.894;10.358;2023-07-16T06:45:57;22.40;99.90
54158;DHT22;40065;49.894;10.358;2023-07-16T06:50:59;22.90;99.90
54158;DHT22;40065;49.894;10.358;2023-07-16T06:56:01;24.50;98.50
54158;DHT22;40065;49.894;10.358;2023-07-16T07:01:03;25.20;97.00
54158;DHT22;40065;49.894;10.358;2023-07-16T07:06:05;25.70;95.70
54158;DHT22;40065;49.894;10.358;2023-07-16T07:11:07;25.10;95.60
54158;DHT22;40065;49.894;10.358;2023-07-16T07:16:09;24.20;97.10
54158;DHT22;40065;49.894;10.358;2023-07-16T07:21:11;24.60;97.10
54158;DHT22;40065;49.894;10.358;2023-07-16T07:26:13;24.20;96.70
54158;DHT22;40065;49.894;10.358;2023-07-16T07:31:15;24.30;95.40
54158;DHT22;40065;49.894;10.358;2023-07-16T07:36:17;25.30;93.40
54158;DHT22;40065;49.894;10.358;2023-07-16T07:41:20;26.40;91.50
54158;DHT22;40065;49.894;10.358;2023-07-16T07:46:22;26.60;90.90
54158;DHT22;40065;49.894;10.358;2023-07-16T07:51:23;26.90;89.20
54158;DHT22;40065;49.894;10.358;2023-07-16T07:56:25;24.70;92.50
54158;DHT22;40065;49.894;10.358;2023-07-16T08:01:27;25.00;92.70
54158;DHT22;40065;49.894;10.358;2023-07-16T08:06:29;25.90;90.80
54158;DHT22;40065;49.894;10.358;2023-07-16T08:11:31;24.80;91.20
54158;DHT22;40065;49.894;10.358;2023-07-16T08:16:33;24.60;92.30
54158;DHT22;40065;49.894;10.358;2023-07-16T08:21:35;26.10;90.00
54158;DHT22;40065;49.894;10.358;2023-07-16T08:26:37;26.30;85.20
54158;DHT22;40065;49.894;10.358;2023-07-16T08:31:39;25.50;89.90
54158;DHT22;40065;49.894;10.358;2023-07-16T08:36:42;26.80;85.10
54158;DHT22;40065;49.894;10.358;2023-07-16T08:41:45;25.80;85.70
54158;DHT22;40065;49.894;10.358;2023-07-16T08:46:48;25.80;84.00
54158;DHT22;40065;49.894;10.358;2023-07-16T08:51:50;25.70;86.10
54158;DHT22;40065;49.894;10.358;2023-07-16T08:56:53;25.30;85.70
54158;DHT22;40065;49.894;10.358;2023-07-16T09:01:55;26.00;83.60
54158;DHT22;40065;49.894;10.358;2023-07-16T09:06:57;27.20;81.00
54158;DHT22;40065;49.894;10.358;2023-07-16T09:11:59;28.40;76.00
54158;DHT22;40065;49.894;10.358;2023-07-16T09:17:02;27.10;75.50
54158;DHT22;40065;49.894;10.358;2023-07-16T09:22:04;26.30;79.00
54158;DHT22;40065;49.894;10.358;2023-07-16T09:27:11;25.90;79.60
54158;DHT22;40065;49.894;10.358;2023-07-16T09:32:13;26.60;80.80
54158;DHT22;40065;49.894;10.358;2023-07-16T09:37:18;26.80;79.50
54158;DHT22;40065;49.894;10.358;2023-07-16T09:42:20;26.90;78.40
54158;DHT22;40065;49.894;10.358;2023-07-16T09:47:26;26.70;79.40
54158;DHT22;40065;49.894;10.358;2023-07-16T09:52:28;27.70;77.70
54158;DHT22;40065;49.894;10.358;2023-07-16T09:57:34;27.50;79.60
54158;DHT22;40065;49.894;10.358;2023-07-16T10:02:37;27.40;76.90
54158;DHT22;40065;49.894;10.358;2023-07-16T10:07:40;27.50;78.00
54158;DHT22;40065;49.894;10.358;2023-07-16T10:12:42;28.10;74.60
54158;DHT22;40065;49.894;10.358;2023-07-16T10:17:50;28.00;76.30
54158;DHT22;40065;49.894;10.358;2023-07-16T10:22:53;28.80;72.70
54158;DHT22;40065;49.894;10.358;2023-07-16T10:27:55;29.50;69.10
54158;DHT22;40065;49.894;10.358;2023-07-16T10:32:57;29.70;68.80
54158;DHT22;40065;49.894;10.358;2023-07-16T10:37:59;29.60;67.50
54158;DHT22;40065;49.894;10.358;2023-07-16T10:43:01;29.60;66.80
54158;DHT22;40065;49.894;10.358;2023-07-16T10:48:03;29.70;67.10
54158;DHT22;40065;49.894;10.358;2023-07-16T10:53:05;30.00;65.10
54158;DHT22;40065;49.894;10.358;2023-07-16T10:58:07;29.00;66.50
54158;DHT22;40065;49.894;10.358;2023-07-16T11:03:09;29.10;64.40
54158;DHT22;40065;49.894;10.358;2023-07-16T11:08:24;28.10;66.70
54158;DHT22;40065;49.894;10.358;2023-07-16T11:13:27;28.40;66.60
54158;DHT22;40065;49.894;10.358;2023-07-16T11:18:31;28.20;67.80
54158;DHT22;40065;49.894;10.358;2023-07-16T11:23:36;28.90;67.60
54158;DHT22;40065;49.894;10.358;2023-07-16T11:28:41;28.80;64.90
54158;DHT22;40065;49.894;10.358;2023-07-16T11:33:44;28.60;66.50
54158;DHT22;40065;49.894;10.358;2023-07-16T11:38:48;28.80;67.10
54158;DHT22;40065;49.894;10.358;2023-07-16T11:43:50;30.40;63.90
54158;DHT22;40065;49.894;10.358;2023-07-16T11:48:52;30.90;63.80
54158;DHT22;40065;49.894;10.358;2023-07-16T11:53:56;30.50;61.20
54158;DHT22;40065;49.894;10.358;2023-07-16T11:58:58;30.50;64.00
54158;DHT22;40065;49.894;10.358;2023-07-16T12:03:59;29.80;62.80
54158;DHT22;40065;49.894;10.358;2023-07-16T12:09:01;30.10;62.10
54158;DHT22;40065;49.894;10.358;2023-07-16T12:14:06;30.80;59.60
54158;DHT22;40065;49.894;10.358;2023-07-16T12:19:09;30.60;60.00
54158;DHT22;40065;49.894;10.358;2023-07-16T12:24:11;31.00;61.30
54158;DHT22;40065;49.894;10.358;2023-07-16T12:29:13;31.50;57.90
54158;DHT22;40065;49.894;10.358;2023-07-16T12:34:15;30.60;59.70
54158;DHT22;40065;49.894;10.358;2023-07-16T12:39:17;29.70;59.80
54158;DHT22;40065;49.894;10.358;2023-07-16T12:44:18;29.40;62.50
54158;DHT22;40065;49.894;10.358;2023-07-16T12:49:20;29.50;62.30
54158;DHT22;40065;49.894;10.358;2023-07-16T12:54:22;30.60;59.70
54158;DHT22;40065;49.894;10.358;2023-07-16T12:59:25;29.70;60.70
54158;DHT22;40065;49.894;10.358;2023-07-16T13:04:26;30.20;61.20
54158;DHT22;40065;49.894;10.358;2023-07-16T13:09:28;31.20;59.40
54158;DHT22;40065;49.894;10.358;2023-07-16T13:14:30;30.80;59.20
54158;DHT22;40065;49.894;10.358;2023-07-16T13:19:32;31.20;59.30
54158;DHT22;40065;49.894;10.358;2023-07-16T13:24:34;32.20;56.00
54158;DHT22;40065;49.894;10.358;2023-07-16T13:29:36;30.50;57.90
54158;DHT22;40065;49.894;10.358;2023-07-16T13:34:38;30.60;58.00
54158;DHT22;40065;49.894;10.358;2023-07-16T13:39:40;31.00;56.90
54158;DHT22;40065;49.894;10.358;2023-07-16T13:44:41;31.00;57.30
54158;DHT22;40065;49.894;10.358;2023-07-16T13:49:43;31.50;56.70
54158;DHT22;40065;49.894;10.358;2023-07-16T13:54:45;31.00;55.60
54158;DHT22;40065;49.894;10.358;2023-07-16T13:59:47;30.30;56.70
54158;DHT22;40065;49.894;10.358;2023-07-16T14:04:49;30.60;57.30
54158;DHT22;40065;49.894;10.358;2023-07-16T14:09:50;31.10;55.50
54158;DHT22;40065;49.894;10.358;2023-07-16T14:14:52;31.60;53.70
54158;DHT22;40065;49.894;10.358;2023-07-16T14:19:54;30.90;53.70
54158;DHT22;40065;49.894;10.358;2023-07-16T14:24:56;30.20;55.10
54158;DHT22;40065;49.894;10.358;2023-07-16T14:29:58;30.30;55.30
54158;DHT22;40065;49.894;10.358;2023-07-16T14:35:07;31.10;53.80
54158;DHT22;40065;49.894;10.358;2023-07-16T14:40:22;31.70;54.00
54158;DHT22;40065;49.894;10.358;2023-07-16T14:45:25;32.10;53.40
54158;DHT22;40065;49.894;10.358;2023-07-16T14:50:28;31.30;53.50
54158;DHT22;40065;49.894;10.358;2023-07-16T14:55:29;31.00;51.70
54158;DHT22;40065;49.894;10.358;2023-07-16T15:00:32;30.30;53.30
54158;DHT22;40065;49.894;10.358;2023-07-16T15:05:33;30.70;53.40
54158;DHT22;40065;49.894;10.358;2023-07-16T15:10:35;30.80;53.20
54158;DHT22;40065;49.894;10.358;2023-07-16T15:15:37;30.40;52.20
54158;DHT22;40065;49.894;10.358;2023-07-16T15:20:39;30.90;52.80
54158;DHT22;40065;49.894;10.358;2023-07-16T15:25:42;31.10;51.90
54158;DHT22;40065;49.894;10.358;2023-07-16T15:30:44;30.60;51.60
54158;DHT22;40065;49.894;10.358;2023-07-16T15:35:46;30.50;52.10
54158;DHT22;40065;49.894;10.358;2023-07-16T15:40:47;30.70;52.00
54158;DHT22;40065;49.894;10.358;2023-07-16T15:45:49;30.30;51.90
54158;DHT22;40065;49.894;10.358;2023-07-16T15:50:56;29.40;53.50
54158;DHT22;40065;49.894;10.358;2023-07-16T15:55:58;29.00;54.20
54158;DHT22;40065;49.894;10.358;2023-07-16T16:01:00;29.40;53.60
54158;DHT22;40065;49.894;10.358;2023-07-16T16:06:02;29.90;52.50
54158;DHT22;40065;49.894;10.358;2023-07-16T16:11:04;30.20;52.80
54158;DHT22;40065;49.894;10.358;2023-07-16T16:16:06;29.70;51.90
54158;DHT22;40065;49.894;10.358;2023-07-16T16:21:08;29.60;51.60
54158;DHT22;40065;49.894;10.358;2023-07-16T16:26:10;29.60;52.30
54158;DHT22;40065;49.894;10.358;2023-07-16T16:31:12;29.30;51.20
54158;DHT22;40065;49.894;10.358;2023-07-16T16:36:14;29.00;50.30
54158;DHT22;40065;49.894;10.358;2023-07-16T16:41:16;29.00;50.10
54158;DHT22;40065;49.894;10.358;2023-07-16T16:46:18;28.90;51.30
54158;DHT22;40065;49.894;10.358;2023-07-16T16:51:20;28.90;52.10
54158;DHT22;40065;49.894;10.358;2023-07-16T16:56:22;28.90;52.00
54158;DHT22;40065;49.894;10.358;2023-07-16T17:01:24;28.80;51.40
54158;DHT22;40065;49.894;10.358;2023-07-16T17:06:26;28.40;52.20
54158;DHT22;40065;49.894;10.358;2023-07-16T17:11:28;28.50;52.20
54158;DHT22;40065;49.894;10.358;2023-07-16T17:16:30;28.20;51.80
54158;DHT22;40065;49.894;10.358;2023-07-16T17:21:31;28.40;52.50
54158;DHT22;40065;49.894;10.358;2023-07-16T17:26:33;28.30;52.30
54158;DHT22;40065;49.894;10.358;2023-07-16T17:31:36;28.30;52.10
54158;DHT22;40065;49.894;10.358;2023-07-16T17:36:38;28.00;52.30
54158;DHT22;40065;49.894;10.358;2023-07-16T17:41:40;27.80;52.80
54158;DHT22;40065;49.894;10.358;2023-07-16T17:46:45;27.90;53.80
54158;DHT22;40065;49.894;10.358;2023-07-16T17:51:47;27.80;53.20
54158;DHT22;40065;49.894;10.358;2023-07-16T17:56:50;27.70;53.40
54158;DHT22;40065;49.894;10.358;2023-07-16T18:01:53;27.70;53.60
54158;DHT22;40065;49.894;10.358;2023-07-16T18:06:57;27.60;53.70
54158;DHT22;40065;49.894;10.358;2023-07-16T18:11:59;27.70;53.90
54158;DHT22;40065;49.894;10.358;2023-07-16T18:17:00;27.60;54.50
54158;DHT22;40065;49.894;10.358;2023-07-16T18:22:03;27.60;54.70
54158;DHT22;40065;49.894;10.358;2023-07-16T18:27:25;27.50;54.70
54158;DHT22;40065;49.894;10.358;2023-07-16T18:32:27;27.40;55.00
54158;DHT22;40065;49.894;10.358;2023-07-16T18:37:30;27.20;55.50
54158;DHT22;40065;49.894;10.358;2023-07-16T18:42:32;27.10;56.00
54158;DHT22;40065;49.894;10.358;2023-07-16T18:47:33;27.00;56.30
54158;DHT22;40065;49.894;10.358;2023-07-16T18:52:35;26.70;56.80
54158;DHT22;40065;49.894;10.358;2023-07-16T18:57:37;26.70;57.10
54158;DHT22;40065;49.894;10.358;2023-07-16T19:02:39;26.50;57.50
54158;DHT22;40065;49.894;10.358;2023-07-16T19:07:41;26.30;58.20
54158;DHT22;40065;49.894;10.358;2023-07-16T19:12:43;26.10;58.30
54158;DHT22;40065;49.894;10.358;2023-07-16T19:17:45;25.80;58.60
54158;DHT22;40065;49.894;10.358;2023-07-16T19:22:46;25.50;61.10
54158;DHT22;40065;49.894;10.358;2023-07-16T19:27:48;25.30;60.50
54158;DHT22;40065;49.894;10.358;2023-07-16T19:32:50;25.20;62.50
54158;DHT22;40065;49.894;10.358;2023-07-16T19:37:53;25.00;62.00
54158;DHT22;40065;49.894;10.358;2023-07-16T19:42:55;25.00;61.30
54158;DHT22;40065;49.894;10.358;2023-07-16T19:47:57;24.70;61.90
54158;DHT22;40065;49.894;10.358;2023-07-16T19:53:01;24.60;62.80
54158;DHT22;40065;49.894;10.358;2023-07-16T19:58:03;24.60;61.90
54158;DHT22;40065;49.894;10.358;2023-07-16T20:03:05;24.50;61.80
54158;DHT22;40065;49.894;10.358;2023-07-16T20:08:10;24.60;61.80
54158;DHT22;40065;49.894;10.358;2023-07-16T20:13:15;24.50;62.30
54158;DHT22;40065;49.894;10.358;2023-07-16T20:18:17;24.40;63.60
54158;DHT22;40065;49.894;10.358;2023-07-16T20:23:19;24.20;64.50
54158;DHT22;40065;49.894;10.358;2023-07-16T20:28:25;24.10;64.50
54158;DHT22;40065;49.894;10.358;2023-07-16T20:33:27;24.10;64.80
54158;DHT22;40065;49.894;10.358;2023-07-16T20:38:29;23.90;66.40
54158;DHT22;40065;49.894;10.358;2023-07-16T20:43:30;23.70;66.50
54158;DHT22;40065;49.894;10.358;2023-07-16T20:48:32;23.80;66.00
54158;DHT22;40065;49.894;10.358;2023-07-16T20:53:34;23.80;65.60
54158;DHT22;40065;49.894;10.358;2023-07-16T20:58:36;23.80;65.80
54158;DHT22;40065;49.894;10.358;2023-07-16T21:03:38;23.60;67.30
54158;DHT22;40065;49.894;10.358;2023-07-16T21:08:40;23.40;68.90
54158;DHT22;40065;49.894;10.358;2023-07-16T21:13:42;23.40;69.80
54158;DHT22;40065;49.894;10.358;2023-07-16T21:18:44;23.30;69.50
54158;DHT22;40065;49.894;10.358;2023-07-16T21:23:46;23.10;71.50
54158;DHT22;40065;49.894;10.358;2023-07-16T21:28:48;23.00;69.60
54158;DHT22;40065;49.894;10.358;2023-07-16T21:33:50;23.10;69.80
54158;DHT22;40065;49.894;10.358;2023-07-16T21:38:51;23.00;69.60
54158;DHT22;40065;49.894;10.358;2023-07-16T21:43:53;22.90;73.30
54158;DHT22;40065;49.894;10.358;2023-07-16T21:48:55;22.80;73.10
54158;DHT22;40065;49.894;10.358;2023-07-16T21:53:57;22.70;73.50
54158;DHT22;40065;49.894;10.358;2023-07-16T21:59:01;22.30;75.60
54158;DHT22;40065;49.894;10.358;2023-07-16T22:04:03;21.70;77.60
54158;DHT22;40065;49.894;10.358;2023-07-16T22:09:05;21.20;79.50
54158;DHT22;40065;49.894;10.358;2023-07-16T22:14:08;21.00;80.60
54158;DHT22;40065;49.894;10.358;2023-07-16T22:19:10;20.80;82.70
54158;DHT22;40065;49.894;10.358;2023-07-16T22:24:31;21.00;82.10
54158;DHT22;40065;49.894;10.358;2023-07-16T22:29:33;21.20;81.30
54158;DHT22;40065;49.894;10.358;2023-07-16T22:34:35;21.10;81.30
54158;DHT22;40065;49.894;10.358;2023-07-16T22:39:37;21.10;81.80
54158;DHT22;40065;49.894;10.358;2023-07-16T22:44:38;21.00;82.60
54158;DHT22;40065;49.894;10.358;2023-07-16T22:49:40;21.10;82.30
54158;DHT22;40065;49.894;10.358;2023-07-16T22:54:42;21.00;83.90
54158;DHT22;40065;49.894;10.358;2023-07-16T22:59:44;20.90;84.80
54158;DHT22;40065;49.894;10.358;2023-07-16T23:04:46;20.90;85.30
54158;DHT22;40065;49.894;10.358;2023-07-16T23:09:48;20.90;85.90
54158;DHT22;40065;49.894;10.358;2023-07-16T23:14:49;20.80;86.40
54158;DHT22;40065;49.894;10.358;2023-07-16T23:19:51;20.80;86.70
54158;DHT22;40065;49.894;10.358;2023-07-16T23:24:53;20.70;87.40
54158;DHT22;40065;49.894;10.358;2023-07-16T23:29:55;20.70;86.80
54158;DHT22;40065;49.894;10.358;2023-07-16T23:34:57;20.90;86.40
54158;DHT22;40065;49.894;10.358;2023-07-16T23:39:59;21.00;85.60
54158;DHT22;40065;49.894;10.358;2023-07-16T23:45:01;21.10;84.80
54158;DHT22;40065;49.894;10.358;2023-07-16T23:50:03;21.20;85.20
54158;DHT22;40065;49.894;10.358;2023-07-16T23:55:06;21.50;82.90
